Time;durP1;ratioP1;P1;durP2;ratioP2;P2;SDS_P1;SDS_P2;PMS_P1;PMS_P2;Temp;Humidity;BMP_temperature;BMP_pressure;BME280_temperature;BME280_humidity;BME280_pressure;Samples;Min_cycle;Max_cycle;Signal;HPM_P1;HPM_P2
2023/06/24 00:00:18;;;;;;;27.30;19.23;;;;;;;-141.97;62.61;47465.25;5015581;28;20182;-82
2023/06/24 00:02:53;;;;;;;29.47;20.33;;;;;;;-141.97;62.53;47396.06;5015332;28;20568;-83
2023/06/24 00:05:38;;;;;;;29.87;19.73;;;;;;;-141.97;62.18;47330.72;5015343;28;20174;-84
2023/06/24 00:08:34;;;;;;;34.77;21.47;;;;;;;-141.97;62.33;47469.09;5031578;28;20240;-82
2023/06/24 00:11:20;;;;;;;26.60;19.13;;;;;;;-141.97;62.59;47301.91;5053497;28;20196;-83
2023/06/24 00:13:46;;;;;;;25.60;17.47;;;;;;;-141.97;62.61;47490.25;5056837;28;20199;-83
2023/06/24 00:16:14;;;;;;;22.20;16.80;;;;;;;-141.97;62.75;47290.38;5076236;28;20152;-82
2023/06/24 00:18:42;;;;;;;20.70;15.00;;;;;;;-141.97;62.97;47653.63;5057981;28;20609;-81
2023/06/24 00:21:08;;;;;;;21.47;13.77;;;;;;;-141.97;62.65;47344.19;5075458;28;20153;-82
2023/06/24 00:23:34;;;;;;;16.83;12.83;;;;;;;-141.97;62.61;47472.94;5057841;28;20216;-83
2023/06/24 00:26:00;;;;;;;18.00;12.20;;;;;;;-141.97;62.13;47480.63;5063324;28;20632;-80
2023/06/24 00:28:26;;;;;;;16.33;11.77;;;;;;;-141.97;61.92;47486.41;5085952;28;20252;-81
2023/06/24 00:30:52;;;;;;;14.77;11.20;;;;;;;-141.97;61.53;47522.91;5078735;28;20184;-81
2023/06/24 00:33:19;;;;;;;13.13;11.20;;;;;;;-141.97;61.81;47480.63;5076487;28;20176;-81
2023/06/24 00:35:45;;;;;;;14.00;10.77;;;;;;;-141.97;61.31;47484.47;5056631;28;20165;-82
2023/06/24 00:38:11;;;;;;;13.53;10.60;;;;;;;-141.97;60.49;47355.72;5075033;28;20168;-82
2023/06/24 00:40:39;;;;;;;15.30;10.87;;;;;;;-141.97;60.40;47461.41;5074770;28;20173;-82
2023/06/24 00:43:06;;;;;;;15.07;10.60;;;;;;;-141.97;59.93;47267.31;5076315;28;20165;-82
2023/06/24 00:45:32;;;;;;;13.00;9.70;;;;;;;-141.97;58.79;47401.84;5058325;28;20173;-81
2023/06/24 00:48:01;;;;;;;15.23;9.77;;;;;;;-141.97;58.27;47230.78;5076215;28;20254;-81
2023/06/24 00:50:29;;;;;;;14.50;9.67;;;;;;;-141.97;58.38;47499.84;5075641;28;20268;-82
2023/06/24 00:52:54;;;;;;;13.03;9.80;;;;;;;-141.97;58.16;47496.00;5074391;28;20169;-81
2023/06/24 00:55:20;;;;;;;14.87;9.70;;;;;;;-141.97;57.92;47376.84;5055998;28;20172;-82
2023/06/24 00:57:51;;;;;;;15.53;9.97;;;;;;;-141.97;58.03;47584.44;5073548;28;20621;-82
2023/06/24 01:00:21;;;;;;;12.90;9.40;;;;;;;-141.97;58.35;47569.06;5075547;28;20165;-83
2023/06/24 01:02:57;;;;;;;12.90;9.40;;;;;;;-141.97;58.73;47507.53;5075488;28;20547;-82
2023/06/24 01:05:52;;;;;;;12.20;9.70;;;;;;;-141.97;58.90;47538.28;5057374;28;20168;-82
2023/06/24 01:11:13;;;;;;;16.30;9.57;;;;;;;-141.97;58.33;47153.91;5074357;28;20251;-83
2023/06/24 01:13:39;;;;;;;12.60;9.33;;;;;;;-141.97;58.47;47496.00;5074611;28;20175;-83
2023/06/24 01:16:26;;;;;;;11.13;9.13;;;;;;;-141.97;58.24;47419.13;5074604;28;20146;-82
2023/06/24 01:19:11;;;;;;;13.20;9.33;;;;;;;-141.97;57.58;47663.22;5073717;28;20647;-84
2023/06/24 01:22:22;;;;;;;11.87;9.07;;;;;;;-141.97;57.42;47409.53;5056784;28;20168;-83
2023/06/24 01:25:26;;;;;;;14.60;9.30;;;;;;;-141.97;57.19;47519.06;5056936;28;20622;-82
2023/06/24 01:28:38;;;;;;;11.40;9.13;;;;;;;-141.97;56.68;47461.41;5073872;28;20637;-82
2023/06/24 01:31:34;;;;;;;14.20;9.40;;;;;;;-141.97;56.77;47455.66;5073004;28;20185;-82
2023/06/24 01:34:08;;;;;;;12.40;9.40;;;;;;;-141.97;56.94;47494.09;5073886;28;20172;-81
2023/06/24 01:36:45;;;;;;;12.47;9.23;;;;;;;-141.97;56.78;47353.78;5055917;28;20225;-83
2023/06/24 01:39:46;;;;;;;;;;;;;;;;;;;;;
2023/06/24 01:42:47;;;;;;;13.27;9.23;;;;;;;-141.97;56.06;47565.22;5073658;28;20159;-83
2023/06/24 01:45:19;;;;;;;13.27;9.00;;;;;;;-141.97;56.30;47446.03;5073592;28;20568;-82
2023/06/24 01:47:54;;;;;;;12.17;9.47;;;;;;;-141.97;56.54;47159.69;5074001;28;20165;-81
2023/06/24 01:50:25;;;;;;;12.13;8.53;;;;;;;-141.97;56.23;47601.72;5031285;28;20697;-82
2023/06/24 01:52:55;;;;;;;12.23;9.13;;;;;;;-141.97;56.22;47695.91;5031792;28;20588;-81
2023/06/24 01:55:23;;;;;;;10.97;8.63;;;;;;;-141.97;56.25;47534.44;5031383;28;20162;-82
2023/06/24 01:57:51;;;;;;;12.17;9.30;;;;;;;-141.97;56.21;47284.59;5030706;28;20284;-82
2023/06/24 02:00:17;;;;;;;12.00;8.80;;;;;;;-141.97;56.37;47580.59;5031421;28;20166;-83
2023/06/24 02:02:45;;;;;;;11.50;9.13;;;;;;;-141.97;56.41;47211.56;5031624;28;20189;-83
2023/06/24 02:05:12;;;;;;;12.40;8.70;;;;;;;-141.97;56.27;47592.13;5031040;28;20170;-83
2023/06/24 02:07:44;;;;;;;12.07;9.37;;;;;;;-141.97;56.62;47353.78;5019996;28;20190;-83
2023/06/24 02:10:21;;;;;;;12.10;9.20;;;;;;;-141.97;56.50;47544.06;4994722;28;20222;-82
2023/06/24 02:12:56;;;;;;;11.13;9.47;;;;;;;-141.97;56.38;47488.31;5011163;28;20171;-83
2023/06/24 02:15:41;;;;;;;14.40;9.43;;;;;;;-141.97;56.74;47601.72;5041045;28;20188;-82
2023/06/24 02:18:15;;;;;;;10.73;9.03;;;;;;;-141.97;57.01;47201.97;5053633;28;20165;-82
2023/06/24 02:20:43;;;;;;;12.80;9.27;;;;;;;-141.97;57.24;47632.47;5053186;28;20181;-84
2023/06/24 02:23:16;;;;;;;13.40;9.47;;;;;;;-141.97;57.38;47405.69;5053278;28;20630;-82
2023/06/24 02:25:43;;;;;;;14.97;9.70;;;;;;;-141.97;57.34;47574.81;5035307;28;20564;-83
2023/06/24 02:28:10;;;;;;;11.50;9.10;;;;;;;-141.97;57.43;47624.78;5053243;28;20253;-82
2023/06/24 02:30:37;;;;;;;14.67;9.80;;;;;;;-141.97;57.06;47257.69;5052964;28;20196;-85
2023/06/24 02:33:03;;;;;;;12.40;9.73;;;;;;;-141.97;57.43;47511.38;5053903;28;20240;-85
2023/06/24 02:35:29;;;;;;;14.50;9.50;;;;;;;-141.97;57.45;47732.44;5036137;28;20205;-85
2023/06/24 02:37:54;;;;;;;14.50;9.33;;;;;;;-141.97;57.16;47651.69;5035458;28;20654;-85
2023/06/24 02:40:29;;;;;;;13.87;9.43;;;;;;;-141.97;57.11;47511.38;5035832;28;20189;-85
2023/06/24 02:42:54;;;;;;;13.47;9.50;;;;;;;-141.97;57.23;47288.44;5035385;28;20179;-84
2023/06/24 02:45:30;;;;;;;13.07;9.40;;;;;;;-141.97;57.60;47609.41;5035148;28;20554;-83
2023/06/24 02:48:15;;;;;;;13.13;9.67;;;;;;;-141.97;57.71;47309.59;5053182;28;20239;-83
2023/06/24 02:50:43;;;;;;;12.23;9.23;;;;;;;-141.97;57.93;47605.56;5034707;28;20287;-82
2023/06/24 02:53:16;;;;;;;12.63;9.80;;;;;;;-141.97;58.13;47334.56;5052711;28;20153;-82
2023/06/24 02:55:42;;;;;;;14.60;9.87;;;;;;;-141.97;58.29;47411.44;5068268;28;20177;-81
2023/06/24 02:58:09;;;;;;;13.97;9.87;;;;;;;-141.97;58.13;47288.44;5059715;28;20301;-81
2023/06/24 03:00:36;;;;;;;14.30;9.63;;;;;;;-141.97;58.30;47715.13;5073099;28;20229;-82
2023/06/24 03:03:04;;;;;;;12.77;9.90;;;;;;;-141.97;58.49;47169.28;5072330;28;20238;-81
2023/06/24 03:05:31;;;;;;;13.90;9.83;;;;;;;-141.97;58.15;47624.78;5071433;28;20164;-80
2023/06/24 03:07:57;;;;;;;13.17;9.60;;;;;;;-141.97;58.42;47507.53;5072840;28;20247;-81
2023/06/24 03:10:24;;;;;;;16.00;10.03;;;;;;;-141.97;58.26;47461.41;5073555;28;20224;-81
2023/06/24 03:12:49;;;;;;;12.23;9.43;;;;;;;-141.97;58.10;47494.09;5077346;28;20263;-82
2023/06/24 03:15:15;;;;;;;12.57;9.70;;;;;;;-141.97;58.09;47726.66;5076090;28;20173;-82
2023/06/24 03:17:40;;;;;;;14.60;9.80;;;;;;;-141.97;57.84;47505.63;5073416;28;20167;-81
2023/06/24 03:20:07;;;;;;;14.23;9.83;;;;;;;-141.97;58.10;47488.31;5072588;28;20230;-80
2023/06/24 03:22:33;;;;;;;12.17;9.67;;;;;;;-141.97;57.62;47494.09;5072698;28;20206;-81
2023/06/24 03:24:58;;;;;;;15.00;9.70;;;;;;;-141.97;57.24;47455.66;5072575;28;20658;-80
2023/06/24 03:27:24;;;;;;;12.77;9.47;;;;;;;-141.97;57.29;47511.38;5072622;28;20157;-80
2023/06/24 03:29:49;;;;;;;13.33;9.70;;;;;;;-141.97;57.27;47517.16;5071650;28;20165;-80
2023/06/24 03:32:15;;;;;;;14.83;9.77;;;;;;;-141.97;57.57;47522.91;5054536;28;20207;-81
2023/06/24 03:34:40;;;;;;;15.57;10.33;;;;;;;-141.97;57.11;47486.41;5072543;28;20625;-80
2023/06/24 03:37:06;;;;;;;15.20;10.73;;;;;;;-141.97;56.94;47722.81;5073651;28;20219;-80
2023/06/24 03:39:31;;;;;;;15.07;9.80;;;;;;;-141.97;56.44;47430.66;5073095;28;20218;-80
2023/06/24 03:41:57;;;;;;;12.80;10.23;;;;;;;-141.97;56.23;47490.25;5055229;28;20168;-80
2023/06/24 03:44:22;;;;;;;16.17;11.23;;;;;;;-141.97;56.33;47538.28;5072758;28;20173;-81
2023/06/24 03:46:48;;;;;;;16.93;10.60;;;;;;;-141.97;56.35;47626.72;5072911;28;20165;-81
2023/06/24 03:49:13;;;;;;;14.17;10.43;;;;;;;-141.97;55.98;47726.66;5072555;28;20160;-80
2023/06/24 03:51:39;;;;;;;16.40;10.33;;;;;;;-141.97;56.05;47511.38;5072420;28;20193;-80
2023/06/24 03:54:04;;;;;;;13.27;10.17;;;;;;;-141.97;55.72;47524.84;5072736;28;20655;-82
2023/06/24 03:56:30;;;;;;;18.07;10.00;;;;;;;-141.97;55.44;47522.91;5073245;28;20161;-81
2023/06/24 03:58:55;;;;;;;13.70;9.73;;;;;;;-141.97;55.55;47496.00;5072423;28;20161;-80
2023/06/24 04:01:20;;;;;;;13.57;10.23;;;;;;;-141.97;55.35;47505.63;5072130;28;20171;-80
2023/06/24 04:03:46;;;;;;;13.67;9.50;;;;;;;-141.97;55.48;47534.44;5073375;28;20655;-82
2023/06/24 04:06:12;;;;;;;14.27;10.20;;;;;;;-141.97;55.21;47507.53;5072744;28;20187;-82
2023/06/24 04:08:40;;;;;;;14.70;9.90;;;;;;;-141.97;55.05;47426.81;5074198;28;20318;-82
2023/06/24 04:11:06;;;;;;;15.40;10.00;;;;;;;-141.97;54.45;47459.50;5076730;28;20719;-82
2023/06/24 04:13:35;;;;;;;13.23;9.80;;;;;;;-141.97;53.55;47503.69;5058926;28;20172;-82
2023/06/24 04:16:01;;;;;;;13.53;9.60;;;;;;;-141.97;53.04;47426.81;5076506;28;20169;-82
2023/06/24 04:18:26;;;;;;;12.20;9.67;;;;;;;-141.97;53.40;47411.44;5074931;28;20226;-82
2023/06/24 04:20:52;;;;;;;14.47;10.10;;;;;;;-141.97;53.53;47474.88;5076780;28;20268;-83
2023/06/24 04:23:17;;;;;;;13.03;9.73;;;;;;;-141.97;53.95;47519.06;5059042;28;20179;-82
2023/06/24 04:25:43;;;;;;;12.77;10.00;;;;;;;-141.97;53.51;47534.44;5058179;28;20302;-82
2023/06/24 04:28:08;;;;;;;13.97;10.30;;;;;;;-141.97;53.62;47469.09;5075492;28;20180;-82
2023/06/24 04:30:35;;;;;;;13.70;9.90;;;;;;;-141.97;52.75;47442.19;5058363;28;20649;-82
2023/06/24 04:33:01;;;;;;;11.77;9.70;;;;;;;-141.97;52.63;47463.34;5076916;28;20580;-82
2023/06/24 04:35:26;;;;;;;14.87;9.47;;;;;;;-141.97;51.50;47363.41;5076917;28;20149;-82
2023/06/24 04:37:52;;;;;;;11.67;9.63;;;;;;;-141.97;51.33;47494.09;5076428;28;20175;-81
2023/06/24 04:40:19;;;;;;;14.37;9.60;;;;;;;-141.97;50.85;47369.16;5076507;28;20223;-82
2023/06/24 04:42:45;;;;;;;18.03;9.90;;;;;;;-141.97;50.86;47507.53;5075895;28;20540;-81
2023/06/24 04:45:10;;;;;;;12.47;9.40;;;;;;;-141.97;50.71;47315.34;5057927;28;20161;-81
2023/06/24 04:47:36;;;;;;;14.30;10.23;;;;;;;-141.97;50.64;47346.09;5075860;28;20264;-82
2023/06/24 04:50:02;;;;;;;14.57;9.97;;;;;;;-141.97;50.84;47353.78;5076648;28;20195;-82
2023/06/24 04:52:27;;;;;;;13.30;9.93;;;;;;;-141.97;50.41;47428.75;5076038;28;20177;-82
2023/06/24 04:54:53;;;;;;;13.43;10.17;;;;;;;-141.97;49.86;47284.59;5076097;28;20593;-82
2023/06/24 04:57:31;;;;;;;13.13;9.60;;;;;;;-141.97;49.37;47449.88;5076020;28;20165;-82
2023/06/24 04:59:58;;;;;;;12.13;9.43;;;;;;;-141.97;49.25;47480.63;5057989;28;20172;-81
2023/06/24 05:02:24;;;;;;;11.17;9.00;;;;;;;-141.97;48.41;47396.06;5076241;28;20629;-83
2023/06/24 05:04:50;;;;;;;10.90;9.03;;;;;;;-141.97;47.84;47484.47;5076228;28;20225;-82
2023/06/24 05:07:16;;;;;;;13.90;9.63;;;;;;;-141.97;48.58;47411.44;5075965;28;20275;-82
2023/06/24 05:09:42;;;;;;;12.57;9.17;;;;;;;-141.97;48.67;47494.09;5075704;28;20232;-82
2023/06/24 05:12:08;;;;;;;14.90;9.30;;;;;;;-141.97;48.34;47380.69;5075432;28;20172;-81
2023/06/24 05:14:35;;;;;;;13.97;9.87;;;;;;;-141.97;47.75;47250.00;5075641;28;20617;-82
2023/06/24 05:17:01;;;;;;;11.57;8.87;;;;;;;-141.97;47.41;47342.25;5058414;28;20173;-82
2023/06/24 05:19:26;;;;;;;12.00;9.67;;;;;;;-141.97;47.33;47275.00;5058819;28;20173;-83
2023/06/24 05:21:52;;;;;;;12.53;9.40;;;;;;;-141.97;47.40;47684.38;5076700;28;20616;-83
2023/06/24 05:24:17;;;;;;;12.97;9.30;;;;;;;-141.97;47.11;47332.66;5076113;28;20177;-82
2023/06/24 05:26:46;;;;;;;11.73;9.27;;;;;;;-141.97;47.17;47415.28;5057565;28;20553;-82
2023/06/24 05:29:11;;;;;;;13.30;9.80;;;;;;;-141.97;47.28;47286.53;5074190;28;20249;-82
2023/06/24 05:31:37;;;;;;;13.20;9.70;;;;;;;-141.97;46.91;47442.19;5074746;28;20267;-83
2023/06/24 05:34:02;;;;;;;11.77;9.40;;;;;;;-141.97;46.47;47580.59;5056728;28;20690;-82
2023/06/24 05:36:28;;;;;;;16.43;9.63;;;;;;;-141.97;46.42;47344.19;5073922;28;20164;-81
2023/06/24 05:38:53;;;;;;;15.33;10.10;;;;;;;-141.97;47.89;47649.78;5073163;28;20613;-81
2023/06/24 05:41:18;;;;;;;14.80;9.80;;;;;;;-141.97;48.15;47684.38;5073900;28;20169;-84
2023/06/24 05:43:44;;;;;;;13.50;9.67;;;;;;;-141.97;47.86;47486.41;5073623;28;20161;-82
2023/06/24 05:46:09;;;;;;;14.63;9.50;;;;;;;-141.97;47.71;47465.25;5073931;28;20243;-82
2023/06/24 05:48:35;;;;;;;13.97;10.00;;;;;;;-141.97;47.20;47549.84;5056099;28;20164;-81
2023/06/24 05:51:00;;;;;;;12.83;9.73;;;;;;;-141.97;46.58;47465.25;5073399;28;20622;-81
2023/06/24 05:53:26;;;;;;;15.03;9.97;;;;;;;-141.97;46.91;47472.94;5073659;28;20172;-82
2023/06/24 05:55:51;;;;;;;13.70;9.87;;;;;;;-141.97;48.56;47271.16;5056289;28;20204;-82
2023/06/24 05:58:17;;;;;;;14.27;9.97;;;;;;;-141.97;47.77;47622.88;5069662;28;20263;-83
2023/06/24 06:00:42;;;;;;;14.07;9.73;;;;;;;-141.97;47.28;47446.03;5078531;28;20207;-82
2023/06/24 06:03:09;;;;;;;16.80;12.20;;;;;;;-141.97;47.08;47298.06;5075474;28;20171;-82
2023/06/24 06:05:34;;;;;;;15.32;10.60;;;;;;;-141.97;47.81;47659.38;5075622;28;20168;-82
2023/06/24 06:08:00;;;;;;;17.00;10.20;;;;;;;-141.97;47.53;47497.94;5077763;28;20164;-82
2023/06/24 06:10:25;;;;;;;14.10;10.50;;;;;;;-141.97;47.08;47667.06;5073729;28;20235;-83
2023/06/24 06:12:52;;;;;;;12.48;10.13;;;;;;;-141.97;46.81;47276.91;5073229;28;20196;-82
2023/06/24 06:15:18;;;;;;;14.05;11.32;;;;;;;-141.97;48.15;47497.94;5073006;28;20582;-82
2023/06/24 06:17:43;;;;;;;14.07;11.48;;;;;;;-141.97;48.12;47211.56;5072781;28;20177;-81
2023/06/24 06:20:09;;;;;;;16.23;11.32;;;;;;;-141.97;48.52;47461.41;5072405;28;20239;-83
2023/06/24 06:22:37;;;;;;;16.00;11.10;;;;;;;-141.97;48.03;47246.16;5073292;28;20164;-82
2023/06/24 06:25:05;;;;;;;13.57;11.38;;;;;;;-141.97;48.22;47442.19;5072923;28;20182;-83
2023/06/24 06:27:30;;;;;;;17.03;11.83;;;;;;;-141.97;48.00;47665.16;5054690;28;20176;-82
2023/06/24 06:29:55;;;;;;;14.75;11.32;;;;;;;-141.97;47.25;47315.34;5072892;28;20178;-82
2023/06/24 06:32:21;;;;;;;16.60;11.65;;;;;;;-141.97;46.96;47392.22;5054721;28;20169;-82
2023/06/24 06:34:46;;;;;;;14.90;11.25;;;;;;;-141.97;46.12;47392.22;5073205;28;20170;-82
2023/06/24 06:37:12;;;;;;;14.10;11.20;;;;;;;-141.97;45.90;47672.84;5072883;28;20164;-83
2023/06/24 06:39:37;;;;;;;13.82;10.80;;;;;;;-141.97;45.60;47407.59;5070750;28;20176;-81
2023/06/24 06:42:02;;;;;;;17.02;11.63;;;;;;;-141.97;45.08;47426.81;5035615;28;20202;-81
2023/06/24 06:44:28;;;;;;;14.82;11.48;;;;;;;-141.97;43.80;47620.94;5053322;28;20190;-82
2023/06/24 06:46:53;;;;;;;14.45;11.07;;;;;;;-141.97;44.22;47428.75;5035097;28;20650;-82
2023/06/24 06:49:19;;;;;;;15.18;11.10;;;;;;;-141.97;44.01;47630.56;5052494;28;20606;-81
2023/06/24 06:51:44;;;;;;;14.30;11.48;;;;;;;-141.97;44.78;47411.44;5051589;28;20658;-82
2023/06/24 06:54:09;;;;;;;13.98;11.00;;;;;;;-141.97;44.25;47572.91;5052281;28;20166;-81
2023/06/24 06:56:35;;;;;;;14.70;10.77;;;;;;;-141.97;43.82;47680.53;5052532;28;20166;-82
2023/06/24 06:59:00;;;;;;;15.13;11.45;;;;;;;-141.97;44.19;47342.25;5052257;28;20619;-82
2023/06/24 07:01:26;;;;;;;14.45;11.27;;;;;;;-141.97;44.37;47430.66;5070190;28;20181;-81
2023/06/24 07:03:51;;;;;;;18.52;12.07;;;;;;;-141.97;43.46;47411.44;5072210;28;20164;-83
2023/06/24 07:06:20;;;;;;;17.33;11.77;;;;;;;-141.97;42.99;47267.31;5053930;28;20257;-82
2023/06/24 07:08:46;;;;;;;17.33;11.38;;;;;;;-141.97;42.29;47330.72;5072343;28;20248;-81
2023/06/24 07:11:11;;;;;;;18.67;10.93;;;;;;;-141.97;42.03;47584.44;5072524;28;20188;-81
2023/06/24 07:13:36;;;;;;;14.43;10.95;;;;;;;-141.97;41.56;47407.59;5072025;28;20170;-82
2023/06/24 07:16:02;;;;;;;16.35;11.73;;;;;;;-141.97;41.68;47336.50;5071520;28;20251;-82
2023/06/24 07:18:33;;;;;;;18.98;11.48;;;;;;;-141.97;41.42;47359.56;5072247;28;20214;-82
2023/06/24 07:21:02;;;;;;;15.63;12.30;;;;;;;-141.97;41.63;47396.06;5072074;28;20175;-81
2023/06/24 07:23:27;;;;;;;16.27;11.05;;;;;;;-141.97;41.70;47092.41;5071954;28;20577;-81
2023/06/24 07:25:52;;;;;;;15.27;11.32;;;;;;;-141.97;42.29;47557.53;5072036;28;20176;-82
2023/06/24 07:28:18;;;;;;;24.45;12.25;;;;;;;-141.97;41.55;47346.09;5072209;28;20242;-83
2023/06/24 07:30:43;;;;;;;16.17;11.48;;;;;;;-141.97;41.21;47246.16;5072048;28;20649;-80
2023/06/24 07:33:09;;;;;;;17.13;11.68;;;;;;;-141.97;41.27;47328.81;5071488;28;20584;-81
2023/06/24 07:35:34;;;;;;;16.38;12.75;;;;;;;-141.97;41.04;47201.97;5072005;28;20172;-81
2023/06/24 07:38:00;;;;;;;17.05;12.70;;;;;;;-141.97;40.77;47405.69;5071413;28;20164;-81
2023/06/24 07:40:26;;;;;;;20.20;11.95;;;;;;;-141.97;40.96;47417.22;5053351;28;20198;-81
2023/06/24 07:42:53;;;;;;;14.63;12.07;;;;;;;-141.97;40.87;47559.44;5070984;28;20199;-81
2023/06/24 07:45:18;;;;;;;15.52;11.35;;;;;;;-141.97;40.63;47123.16;5074979;28;20160;-81
2023/06/24 07:47:44;;;;;;;13.13;10.90;;;;;;;-141.97;39.95;47482.56;5075767;28;20169;-80
2023/06/24 07:50:10;;;;;;;13.63;11.30;;;;;;;-141.97;40.36;47307.66;5075704;28;20189;-80
2023/06/24 07:52:37;;;;;;;13.75;10.55;;;;;;;-141.97;39.66;47369.16;5075649;28;20166;-80
2023/06/24 07:55:03;;;;;;;15.65;10.45;;;;;;;-141.97;38.78;47348.03;5075798;28;20690;-80
2023/06/24 07:57:29;;;;;;;12.55;10.18;;;;;;;-141.97;39.00;47353.78;5075216;28;20153;-81
2023/06/24 07:59:55;;;;;;;17.63;10.82;;;;;;;-141.97;39.02;47590.19;5075130;28;20185;-80
2023/06/24 08:02:21;;;;;;;13.82;10.35;;;;;;;-141.97;38.71;47353.78;5075123;28;20153;-80
2023/06/24 08:04:46;;;;;;;11.65;9.93;;;;;;;-141.97;38.53;47265.38;5075278;28;20220;-80
2023/06/24 08:07:12;;;;;;;12.45;9.82;;;;;;;-141.97;37.94;47409.53;5056995;28;20187;-78
2023/06/24 08:09:37;;;;;;;14.68;9.88;;;;;;;-141.97;38.12;47411.44;5075174;28;20234;-80
2023/06/24 08:12:03;;;;;;;13.98;10.20;;;;;;;-141.97;38.27;47638.25;5075161;28;20206;-81
2023/06/24 08:14:29;;;;;;;12.77;9.65;;;;;;;-141.97;38.93;47361.47;5074733;28;20178;-80
2023/06/24 08:16:54;;;;;;;12.00;9.95;;;;;;;-141.97;38.44;47319.19;5074600;28;20616;-80
2023/06/24 08:19:19;;;;;;;11.13;9.90;;;;;;;-141.97;38.98;47346.09;5074846;28;20172;-80
2023/06/24 08:21:45;;;;;;;13.75;10.40;;;;;;;-141.97;39.12;47294.22;5074803;28;20170;-81
2023/06/24 08:24:10;;;;;;;12.50;9.88;;;;;;;-141.97;38.75;47382.63;5074779;28;20171;-81
2023/06/24 08:26:36;;;;;;;13.95;9.93;;;;;;;-141.97;38.92;47390.31;5074622;28;20163;-79
2023/06/24 08:29:01;;;;;;;13.48;9.93;;;;;;;-141.97;39.13;47386.47;5074465;28;20274;-78
2023/06/24 08:31:26;;;;;;;14.60;10.70;;;;;;;-141.97;38.57;47411.44;5074340;28;20210;-80
2023/06/24 08:33:54;;;;;;;15.35;10.23;;;;;;;-141.97;38.49;47353.78;5074492;28;20174;-81
2023/06/24 08:36:23;;;;;;;13.70;10.00;;;;;;;-141.97;38.54;47438.34;5075089;28;20160;-80
2023/06/24 08:38:48;;;;;;;11.77;10.13;;;;;;;-141.97;38.32;47447.97;5075062;28;20171;-81
2023/06/24 08:41:14;;;;;;;11.73;9.88;;;;;;;-141.97;38.32;47336.50;5074938;28;20157;-80
2023/06/24 08:43:39;;;;;;;14.80;10.20;;;;;;;-141.97;38.01;47557.53;5074654;28;20628;-80
2023/06/24 08:46:05;;;;;;;11.93;10.25;;;;;;;-141.97;37.79;47148.16;5074344;28;20573;-81
2023/06/24 08:48:31;;;;;;;28.73;12.85;;;;;;;-141.97;38.24;47319.19;5075027;28;20247;-81
2023/06/24 08:50:58;;;;;;;12.52;10.02;;;;;;;-141.97;37.68;47346.09;5074267;28;20623;-80
2023/06/24 08:53:26;;;;;;;11.10;9.95;;;;;;;-141.97;37.48;47613.25;5074730;28;20168;-81
2023/06/24 08:55:53;;;;;;;12.15;10.30;;;;;;;-141.97;37.19;47471.03;5055003;28;20214;-80
2023/06/24 08:58:19;;;;;;;11.18;9.98;;;;;;;-141.97;37.28;47376.84;5072983;28;20184;-81
2023/06/24 09:00:45;;;;;;;13.98;10.85;;;;;;;-141.97;37.47;47244.25;5073803;28;20163;-80
2023/06/24 09:03:11;;;;;;;13.02;9.93;;;;;;;-141.97;36.93;47549.84;5074529;28;20611;-81
2023/06/24 09:05:36;;;;;;;16.13;10.73;;;;;;;-141.97;37.22;47288.44;5077285;28;20180;-80
2023/06/24 09:08:02;;;;;;;13.88;10.32;;;;;;;-141.97;36.84;47269.22;5076624;28;20157;-82
2023/06/24 09:10:32;;;;;;;13.90;10.75;;;;;;;-141.97;37.17;47334.56;5074407;28;20236;-81
2023/06/24 09:12:58;;;;;;;13.50;10.50;;;;;;;-141.97;36.39;47196.19;5074513;28;20364;-81
2023/06/24 09:15:23;;;;;;;12.45;9.75;;;;;;;-141.97;36.74;47176.97;5056209;28;20176;-81
2023/06/24 09:17:48;;;;;;;11.60;9.45;;;;;;;-141.97;36.70;47620.94;5074610;28;20171;-81
2023/06/24 09:20:14;;;;;;;11.55;10.18;;;;;;;-141.97;37.17;47357.63;5055933;28;20178;-82
2023/06/24 09:22:42;;;;;;;12.32;9.75;;;;;;;-141.97;36.79;47253.84;5055837;28;20168;-80
2023/06/24 09:25:07;;;;;;;12.07;9.98;;;;;;;-141.97;36.14;47313.44;5073799;28;20169;-81
2023/06/24 09:27:33;;;;;;;11.10;9.18;;;;;;;-141.97;35.88;47305.75;5074040;28;20184;-82
2023/06/24 09:29:58;;;;;;;10.57;9.13;;;;;;;-141.97;35.29;47519.06;5074172;28;20244;-82
2023/06/24 09:32:34;;;;;;;10.93;9.23;;;;;;;-141.97;36.13;47340.34;5056191;28;20191;-81
2023/06/24 09:35:02;;;;;;;10.73;9.57;;;;;;;-141.97;36.07;47515.22;5073725;28;20175;-83
2023/06/24 09:37:30;;;;;;;11.55;9.93;;;;;;;-141.97;36.14;47557.53;5073842;28;20188;-80
2023/06/24 09:39:56;;;;;;;10.98;9.20;;;;;;;-141.97;35.98;47490.25;5073603;28;20177;-81
2023/06/24 09:42:25;;;;;;;11.02;9.50;;;;;;;-141.97;36.12;47336.50;5075138;28;20153;-81
2023/06/24 09:44:54;;;;;;;11.10;9.80;;;;;;;-141.97;35.95;47542.16;5055846;28;20183;-81
2023/06/24 09:47:20;;;;;;;14.13;9.75;;;;;;;-141.97;36.32;47203.88;5074146;28;20215;-81
2023/06/24 09:49:45;;;;;;;11.80;9.75;;;;;;;-141.97;36.39;47246.16;5055987;28;20148;-81
2023/06/24 09:52:15;;;;;;;10.68;9.57;;;;;;;-141.97;36.38;47121.25;5073631;28;20193;-81
2023/06/24 09:54:42;;;;;;;30.15;10.18;;;;;;;-141.97;35.80;47586.34;5073223;28;20242;-81
2023/06/24 09:57:09;;;;;;;13.73;9.20;;;;;;;-141.97;35.65;47105.88;5073219;28;20171;-78
2023/06/24 09:59:36;;;;;;;12.15;9.75;;;;;;;-141.97;35.80;47311.50;5072595;28;20161;-82
2023/06/24 10:02:04;;;;;;;11.68;9.93;;;;;;;-141.97;36.30;47173.13;5055744;28;20178;-82
2023/06/24 10:04:30;;;;;;;13.32;10.27;;;;;;;-141.97;36.14;47324.97;5072685;28;20175;-82
2023/06/24 10:06:55;;;;;;;11.27;9.73;;;;;;;-141.97;35.77;47584.44;5073122;28;20239;-82
2023/06/24 10:09:21;;;;;;;12.68;10.63;;;;;;;-141.97;36.28;47298.06;5072832;28;20677;-82
2023/06/24 10:11:47;;;;;;;12.55;10.05;;;;;;;-141.97;37.20;47276.91;5073241;28;20211;-82
2023/06/24 10:14:14;;;;;;;13.82;10.02;;;;;;;-141.97;36.68;47346.09;5073293;28;20168;-82
2023/06/24 10:16:41;;;;;;;12.00;10.15;;;;;;;-141.97;36.77;47305.75;5073396;28;20165;-81
2023/06/24 10:19:06;;;;;;;10.32;9.23;;;;;;;-141.97;36.15;47219.25;5073554;28;20157;-82
2023/06/24 10:21:52;;;;;;;10.75;9.70;;;;;;;-141.97;36.70;47332.66;5054835;28;20209;-81
2023/06/24 10:24:30;;;;;;;10.70;9.60;;;;;;;-141.97;36.74;47232.72;5073271;28;20175;-82
2023/06/24 10:26:59;;;;;;;12.65;9.98;;;;;;;-141.97;36.43;47165.44;5055114;28;20689;-82
2023/06/24 10:29:36;;;;;;;12.02;9.73;;;;;;;-141.97;36.79;47367.25;5073056;28;20164;-82
2023/06/24 10:32:08;;;;;;;13.15;9.68;;;;;;;-141.97;36.96;47561.38;5072898;28;20188;-82
2023/06/24 10:34:37;;;;;;;11.18;9.30;;;;;;;-141.97;36.01;47290.38;5054695;28;20212;-82
2023/06/24 10:37:04;;;;;;;10.43;9.43;;;;;;;-141.97;36.53;47342.25;5072899;28;20152;-84
2023/06/24 10:40:05;;;;;;;11.45;9.70;;;;;;;-141.97;36.81;47357.63;5072626;28;20334;-82
2023/06/24 10:42:43;;;;;;;10.52;9.18;;;;;;;-141.97;37.40;47349.94;4991515;28;20158;-82
2023/06/24 10:45:08;;;;;;;10.48;9.38;;;;;;;-141.97;36.26;47342.25;4977459;28;20201;-81
2023/06/24 10:47:35;;;;;;;12.00;9.43;;;;;;;-141.97;36.11;47290.38;4974580;28;20270;-81
2023/06/24 10:50:01;;;;;;;11.82;9.32;;;;;;;-141.97;35.87;47180.81;4991124;28;20229;-84
2023/06/24 10:52:26;;;;;;;15.70;9.55;;;;;;;-141.97;36.01;47184.66;4991424;28;20638;-81
2023/06/24 10:54:53;;;;;;;11.00;9.85;;;;;;;-141.97;36.47;47142.38;4990840;28;20163;-81
2023/06/24 10:57:26;;;;;;;10.77;9.25;;;;;;;-141.97;35.69;47326.88;4991086;28;20195;-81
2023/06/24 10:59:53;;;;;;;9.70;8.80;;;;;;;-141.97;35.55;47346.09;4974815;28;20175;-82
2023/06/24 11:02:20;;;;;;;11.07;9.98;;;;;;;-141.97;35.14;47267.31;4990586;28;21030;-81
2023/06/24 11:04:50;;;;;;;10.88;9.82;;;;;;;-141.97;35.48;47305.75;4990165;28;20187;-83
2023/06/24 11:07:21;;;;;;;11.05;9.65;;;;;;;-141.97;35.89;47319.19;4990683;28;20202;-81
2023/06/24 11:09:54;;;;;;;10.82;9.52;;;;;;;-141.97;35.84;47305.75;4990448;28;20246;-81
2023/06/24 11:12:25;;;;;;;11.95;9.93;;;;;;;-141.97;35.78;47192.34;4991050;28;20171;-80
2023/06/24 11:14:50;;;;;;;11.05;9.95;;;;;;;-141.97;35.78;47586.34;5009876;28;20261;-80